This is the latest recevied weather packets stored in our database for station/object KI4FRU. If no packets are shown the sender has not sent any weather packets the latest 10 day(s).
| Time | Temp. | Humidity | Pressure | Rain* | Wind** | Luminosity | Snow |
|---|---|---|---|---|---|---|---|
| 1777996905 | 25.56° C | 55% | 1055.3 hPa | 0 mm | - | 492 W/m² | - |
| 1777996601 | 24.44° C | 54% | 1055.3 hPa | 0 mm | - | 455 W/m² | - |
| 1777996297 | 23.89° C | 55% | 1055.4 hPa | 0 mm | - | 492 W/m² | - |
| 1777995993 | 23.33° C | 55% | 1055.5 hPa | 0 mm | - | 438 W/m² | - |
| 1777995690 | 22.78° C | 56% | 1055.4 hPa | 0 mm | - | 501 W/m² | - |
| 1777995387 | 23.89° C | 57% | 1055.7 hPa | 0 mm | - | 145 W/m² | - |
| 1777995084 | 23.33° C | 61% | 1055.5 hPa | 0 mm | - | 113 W/m² | - |
| 1777994781 | 22.78° C | 65% | 1055.4 hPa | 0 mm | - | 69 W/m² | - |
| 1777994476 | 22.22° C | 60% | 1055.5 hPa | 0 mm | - | 40 W/m² | - |
| 1777994172 | 22.22° C | 62% | 1055.7 hPa | 0 mm | - | 59 W/m² | - |
| 1777993870 | 22.22° C | 62% | 1055.5 hPa | 0 mm | - | 55 W/m² | - |
| 1777993566 | 21.67° C | 66% | 1055.5 hPa | 0 mm | - | 57 W/m² | - |
| 1777993263 | 21.67° C | 62% | 1055.6 hPa | 0 mm | - | 64 W/m² | - |
| 1777992958 | 21.67° C | 62% | 1055.5 hPa | 0 mm | - | 27 W/m² | - |
| 1777992657 | 21.11° C | 64% | 1055.5 hPa | 0 mm | - | 59 W/m² | - |
| 1777992354 | 20.56° C | 66% | 1055.5 hPa | 0 mm | - | 57 W/m² | - |
| 1777992051 | 20.56° C | 64% | 1055.5 hPa | 0 mm | - | 53 W/m² | - |
| 1777991749 | 20.56° C | 64% | 1055.5 hPa | 0 mm | - | 78 W/m² | - |
| 1777991446 | 20.56° C | 68% | 1055.5 hPa | 0 mm | - | 38 W/m² | - |
| 1777991143 | 20° C | 68% | 1055.3 hPa | 0 mm | - | 44 W/m² | - |
| 1777990840 | 20° C | 69% | 1055.7 hPa | 0 mm | - | 25 W/m² | - |
| 1777990537 | 19.44° C | 69% | 1055.4 hPa | 0 mm | - | 37 W/m² | - |
| 1777989931 | 18.89° C | 74% | 1055.3 hPa | 0 mm | - | 47 W/m² | - |
| 1777989628 | 18.33° C | 73% | 1055.4 hPa | 0 mm | - | 49 W/m² | - |
| 1777989324 | 18.33° C | 77% | 1055.3 hPa | 0 mm | - | 47 W/m² | - |
* Rain latest hour (hover to see other rain measurements)
** Current wind speed in m/s (hover to see current wind gust speed)